Bowling Green, Kentucky
Current Conditions -  °F | °C
As of 8:53 AM on Thursday 23 Oct 2014 (Local Time) from KBWG Reporting Station
Clear Clear  
Wind Chill: 41°   Ceiling: Unl
Heat Index: 44°   Visibility: 10mi
Dew Point: 41°   Wind: 6mph
Humidity: 89%   Direction: 80°E
Pressure: 30.26"   Gusts: NA
Location:  36.99°N, 86.44°W
Report Text: KBWG 231353Z AUTO 08005KT 10SM CLR 07/05 A3026 RMK AO2 SLP247 T00670050
Loading
Personal Weather Stations






























Interactive Weather Map
Tropical Storm Tracking
New forecast layout! Learn more

10-Day Weather Forecast

Advertisements
Track Severe Weather on mobile